sensor_id;sensor_type;location;lat;lon;timestamp;pressure;altitude;pressure_sealevel;temperature;humidity
54417;BME280;40326;51.220;7.250;2022-08-16T00:01:32;97561.00;;;16.63;100.00
54417;BME280;40326;51.220;7.250;2022-08-16T00:03:58;97561.28;;;16.69;100.00
54417;BME280;40326;51.220;7.250;2022-08-16T00:06:24;97557.88;;;16.98;100.00
54417;BME280;40326;51.220;7.250;2022-08-16T00:08:49;97546.16;;;17.13;100.00
54417;BME280;40326;51.220;7.250;2022-08-16T00:11:15;97543.28;;;17.36;100.00
54417;BME280;40326;51.220;7.250;2022-08-16T00:13:41;97540.81;;;17.44;100.00
54417;BME280;40326;51.220;7.250;2022-08-16T00:16:07;97543.38;;;17.53;100.00
54417;BME280;40326;51.220;7.250;2022-08-16T00:18:32;97538.84;;;17.65;100.00
54417;BME280;40326;51.220;7.250;2022-08-16T00:20:57;97529.81;;;17.79;100.00
54417;BME280;40326;51.220;7.250;2022-08-16T00:23:23;97529.28;;;17.75;100.00
54417;BME280;40326;51.220;7.250;2022-08-16T00:25:48;97535.81;;;17.79;100.00
54417;BME280;40326;51.220;7.250;2022-08-16T00:28:14;97528.72;;;17.81;100.00
54417;BME280;40326;51.220;7.250;2022-08-16T00:30:39;97540.56;;;17.84;100.00
54417;BME280;40326;51.220;7.250;2022-08-16T00:33:06;97552.41;;;17.86;100.00
54417;BME280;40326;51.220;7.250;2022-08-16T00:35:35;97545.59;;;17.85;100.00
54417;BME280;40326;51.220;7.250;2022-08-16T00:38:04;97544.63;;;17.86;100.00
54417;BME280;40326;51.220;7.250;2022-08-16T00:42:58;97545.34;;;17.79;100.00
54417;BME280;40326;51.220;7.250;2022-08-16T00:45:40;97548.06;;;17.77;100.00
54417;BME280;40326;51.220;7.250;2022-08-16T00:48:10;97554.06;;;17.68;100.00
54417;BME280;40326;51.220;7.250;2022-08-16T00:50:39;97556.81;;;17.67;100.00
54417;BME280;40326;51.220;7.250;2022-08-16T00:53:09;97552.44;;;17.67;100.00
54417;BME280;40326;51.220;7.250;2022-08-16T00:55:38;97553.41;;;17.66;100.00
54417;BME280;40326;51.220;7.250;2022-08-16T00:58:05;97558.06;;;17.63;100.00
54417;BME280;40326;51.220;7.250;2022-08-16T01:00:33;97559.25;;;17.68;100.00
54417;BME280;40326;51.220;7.250;2022-08-16T01:03:01;97561.47;;;17.63;100.00
54417;BME280;40326;51.220;7.250;2022-08-16T01:05:28;97567.06;;;17.49;100.00
54417;BME280;40326;51.220;7.250;2022-08-16T01:07:55;97565.59;;;17.46;100.00
54417;BME280;40326;51.220;7.250;2022-08-16T01:10:24;97566.13;;;17.40;100.00
54417;BME280;40326;51.220;7.250;2022-08-16T01:12:49;97574.59;;;17.33;100.00
54417;BME280;40326;51.220;7.250;2022-08-16T01:15:15;97571.88;;;17.24;100.00
54417;BME280;40326;51.220;7.250;2022-08-16T01:17:42;97570.81;;;17.17;100.00
54417;BME280;40326;51.220;7.250;2022-08-16T01:20:10;97565.66;;;17.17;100.00
54417;BME280;40326;51.220;7.250;2022-08-16T01:22:56;97567.53;;;17.15;100.00
54417;BME280;40326;51.220;7.250;2022-08-16T01:25:29;97577.88;;;17.15;100.00
54417;BME280;40326;51.220;7.250;2022-08-16T01:27:57;97567.53;;;17.15;100.00
54417;BME280;40326;51.220;7.250;2022-08-16T01:30:27;97567.28;;;17.18;100.00
54417;BME280;40326;51.220;7.250;2022-08-16T01:32:57;97558.25;;;17.32;100.00
54417;BME280;40326;51.220;7.250;2022-08-16T01:35:27;97560.16;;;17.30;100.00
54417;BME280;40326;51.220;7.250;2022-08-16T01:37:56;97554.19;;;17.29;100.00
54417;BME280;40326;51.220;7.250;2022-08-16T01:40:27;97549.69;;;17.31;100.00
54417;BME280;40326;51.220;7.250;2022-08-16T01:42:53;97553.88;;;17.42;100.00
54417;BME280;40326;51.220;7.250;2022-08-16T01:45:19;97549.25;;;17.46;100.00
54417;BME280;40326;51.220;7.250;2022-08-16T01:47:48;97547.88;;;17.42;100.00
54417;BME280;40326;51.220;7.250;2022-08-16T01:50:13;97546.84;;;17.35;100.00
54417;BME280;40326;51.220;7.250;2022-08-16T01:52:39;97541.06;;;17.41;100.00
54417;BME280;40326;51.220;7.250;2022-08-16T01:55:06;97541.63;;;17.44;100.00
54417;BME280;40326;51.220;7.250;2022-08-16T01:57:32;97540.25;;;17.50;100.00
54417;BME280;40326;51.220;7.250;2022-08-16T01:59:59;97533.44;;;17.49;100.00
54417;BME280;40326;51.220;7.250;2022-08-16T02:02:24;97540.53;;;17.47;100.00
54417;BME280;40326;51.220;7.250;2022-08-16T02:04:50;97545.28;;;17.42;100.00
54417;BME280;40326;51.220;7.250;2022-08-16T02:07:17;97543.78;;;17.49;100.00
54417;BME280;40326;51.220;7.250;2022-08-16T02:09:45;97544.25;;;17.35;100.00
54417;BME280;40326;51.220;7.250;2022-08-16T02:12:11;97547.91;;;17.32;100.00
54417;BME280;40326;51.220;7.250;2022-08-16T02:14:37;97554.72;;;17.23;100.00
54417;BME280;40326;51.220;7.250;2022-08-16T02:17:06;97554.47;;;17.17;100.00
54417;BME280;40326;51.220;7.250;2022-08-16T02:19:34;97559.09;;;17.13;100.00
54417;BME280;40326;51.220;7.250;2022-08-16T02:22:01;97559.38;;;17.10;100.00
54417;BME280;40326;51.220;7.250;2022-08-16T02:24:27;97563.19;;;17.06;100.00
54417;BME280;40326;51.220;7.250;2022-08-16T02:26:52;97552.84;;;17.06;100.00
54417;BME280;40326;51.220;7.250;2022-08-16T02:29:19;97563.47;;;17.03;100.00
54417;BME280;40326;51.220;7.250;2022-08-16T02:31:45;97559.66;;;16.97;100.00
54417;BME280;40326;51.220;7.250;2022-08-16T02:34:11;97564.56;;;16.91;100.00
54417;BME280;40326;51.220;7.250;2022-08-16T02:36:37;97570.28;;;16.85;100.00
54417;BME280;40326;51.220;7.250;2022-08-16T02:39:05;97563.19;;;16.87;100.00
54417;BME280;40326;51.220;7.250;2022-08-16T02:41:31;97558.84;;;16.78;100.00
54417;BME280;40326;51.220;7.250;2022-08-16T02:43:57;97561.84;;;16.73;100.00
54417;BME280;40326;51.220;7.250;2022-08-16T02:46:24;97558.13;;;16.66;100.00
54417;BME280;40326;51.220;7.250;2022-08-16T02:48:49;97559.31;;;16.62;100.00
54417;BME280;40326;51.220;7.250;2022-08-16T02:51:14;97568.59;;;16.64;100.00
54417;BME280;40326;51.220;7.250;2022-08-16T02:53:43;97566.69;;;16.57;100.00
54417;BME280;40326;51.220;7.250;2022-08-16T02:56:11;97561.22;;;16.50;100.00
54417;BME280;40326;51.220;7.250;2022-08-16T02:58:36;97570.75;;;16.50;100.00
54417;BME280;40326;51.220;7.250;2022-08-16T03:01:02;97562.03;;;16.51;100.00
54417;BME280;40326;51.220;7.250;2022-08-16T03:03:27;97571.03;;;16.46;100.00
54417;BME280;40326;51.220;7.250;2022-08-16T03:05:53;97564.88;;;16.38;100.00
54417;BME280;40326;51.220;7.250;2022-08-16T03:08:21;97564.44;;;16.33;100.00
54417;BME280;40326;51.220;7.250;2022-08-16T03:10:47;97567.81;;;16.24;100.00
54417;BME280;40326;51.220;7.250;2022-08-16T03:13:14;97567.19;;;16.31;100.00
54417;BME280;40326;51.220;7.250;2022-08-16T03:15:42;97577.22;;;16.25;100.00
54417;BME280;40326;51.220;7.250;2022-08-16T03:18:08;97571.47;;;16.11;100.00
54417;BME280;40326;51.220;7.250;2022-08-16T03:20:34;97575.78;;;16.01;100.00
54417;BME280;40326;51.220;7.250;2022-08-16T03:22:59;97573.63;;;16.06;100.00
54417;BME280;40326;51.220;7.250;2022-08-16T03:25:25;97576.84;;;15.99;100.00
54417;BME280;40326;51.220;7.250;2022-08-16T03:27:51;97575.06;;;15.99;100.00
54417;BME280;40326;51.220;7.250;2022-08-16T03:30:25;97585.50;;;15.88;100.00
54417;BME280;40326;51.220;7.250;2022-08-16T03:32:51;97586.28;;;15.79;100.00
54417;BME280;40326;51.220;7.250;2022-08-16T03:35:18;97600.00;;;15.79;100.00
54417;BME280;40326;51.220;7.250;2022-08-16T03:37:45;97597.72;;;15.86;100.00
54417;BME280;40326;51.220;7.250;2022-08-16T03:40:13;97606.09;;;15.78;100.00
54417;BME280;40326;51.220;7.250;2022-08-16T03:42:38;97608.22;;;15.64;100.00
54417;BME280;40326;51.220;7.250;2022-08-16T03:45:04;97606.25;;;15.56;100.00
54417;BME280;40326;51.220;7.250;2022-08-16T03:47:30;97611.56;;;15.43;100.00
54417;BME280;40326;51.220;7.250;2022-08-16T03:49:56;97624.84;;;15.39;100.00
54417;BME280;40326;51.220;7.250;2022-08-16T03:52:23;97631.59;;;15.30;100.00
54417;BME280;40326;51.220;7.250;2022-08-16T03:54:50;97630.19;;;15.26;100.00
54417;BME280;40326;51.220;7.250;2022-08-16T03:57:16;97628.19;;;15.29;100.00
54417;BME280;40326;51.220;7.250;2022-08-16T03:59:42;97639.06;;;15.33;100.00
54417;BME280;40326;51.220;7.250;2022-08-16T04:02:07;97640.25;;;15.29;100.00
54417;BME280;40326;51.220;7.250;2022-08-16T04:04:33;97640.25;;;15.29;100.00
54417;BME280;40326;51.220;7.250;2022-08-16T04:07:02;97645.09;;;15.22;100.00
54417;BME280;40326;51.220;7.250;2022-08-16T04:09:29;97649.31;;;15.23;100.00
54417;BME280;40326;51.220;7.250;2022-08-16T04:11:55;97648.94;;;15.28;100.00
54417;BME280;40326;51.220;7.250;2022-08-16T04:14:20;97645.09;;;15.22;100.00
54417;BME280;40326;51.220;7.250;2022-08-16T04:16:46;97642.91;;;15.07;100.00
54417;BME280;40326;51.220;7.250;2022-08-16T04:19:11;97644.94;;;15.03;100.00
54417;BME280;40326;51.220;7.250;2022-08-16T04:21:36;97648.56;;;15.00;100.00
54417;BME280;40326;51.220;7.250;2022-08-16T04:24:02;97648.31;;;15.03;100.00
54417;BME280;40326;51.220;7.250;2022-08-16T04:26:29;97656.53;;;14.97;100.00
54417;BME280;40326;51.220;7.250;2022-08-16T04:28:54;97660.06;;;14.96;100.00
54417;BME280;40326;51.220;7.250;2022-08-16T04:31:20;97665.91;;;14.98;100.00
54417;BME280;40326;51.220;7.250;2022-08-16T04:33:45;97674.59;;;14.97;100.00
54417;BME280;40326;51.220;7.250;2022-08-16T04:36:11;97670.38;;;14.96;100.00
54417;BME280;40326;51.220;7.250;2022-08-16T04:38:37;97673.84;;;15.07;100.00
54417;BME280;40326;51.220;7.250;2022-08-16T04:41:02;97670.66;;;15.14;100.00
54417;BME280;40326;51.220;7.250;2022-08-16T04:43:27;97674.06;;;15.15;100.00
54417;BME280;40326;51.220;7.250;2022-08-16T04:45:53;97674.53;;;15.20;100.00
54417;BME280;40326;51.220;7.250;2022-08-16T04:48:19;97668.00;;;15.37;100.00
54417;BME280;40326;51.220;7.250;2022-08-16T04:50:44;97672.50;;;15.55;100.00
54417;BME280;40326;51.220;7.250;2022-08-16T04:53:10;97668.25;;;15.66;100.00
54417;BME280;40326;51.220;7.250;2022-08-16T04:55:36;97660.22;;;15.89;100.00
54417;BME280;40326;51.220;7.250;2022-08-16T04:58:02;97653.25;;;16.01;100.00
54417;BME280;40326;51.220;7.250;2022-08-16T05:00:31;97641.56;;;16.07;100.00
54417;BME280;40326;51.220;7.250;2022-08-16T05:03:06;97642.19;;;16.20;100.00
54417;BME280;40326;51.220;7.250;2022-08-16T05:05:32;97626.63;;;16.41;100.00
54417;BME280;40326;51.220;7.250;2022-08-16T05:07:58;97617.25;;;16.50;100.00
54417;BME280;40326;51.220;7.250;2022-08-16T05:10:23;97615.91;;;16.55;100.00
54417;BME280;40326;51.220;7.250;2022-08-16T05:12:48;97618.44;;;16.76;100.00
54417;BME280;40326;51.220;7.250;2022-08-16T05:15:14;97611.78;;;16.83;100.00
54417;BME280;40326;51.220;7.250;2022-08-16T05:17:40;97612.47;;;16.95;100.00
54417;BME280;40326;51.220;7.250;2022-08-16T05:20:07;97602.78;;;16.97;100.00
54417;BME280;40326;51.220;7.250;2022-08-16T05:22:34;97607.16;;;17.06;100.00
54417;BME280;40326;51.220;7.250;2022-08-16T05:25:01;97606.47;;;17.14;100.00
54417;BME280;40326;51.220;7.250;2022-08-16T05:27:26;97606.75;;;17.20;100.00
54417;BME280;40326;51.220;7.250;2022-08-16T05:29:51;97598.97;;;17.40;100.00
54417;BME280;40326;51.220;7.250;2022-08-16T05:32:17;97601.53;;;17.49;100.00
54417;BME280;40326;51.220;7.250;2022-08-16T05:34:42;97606.97;;;17.66;100.00
54417;BME280;40326;51.220;7.250;2022-08-16T05:37:07;97603.97;;;18.17;100.00
54417;BME280;40326;51.220;7.250;2022-08-16T05:39:33;97582.84;;;18.85;100.00
54417;BME280;40326;51.220;7.250;2022-08-16T05:41:59;97570.59;;;19.13;100.00
54417;BME280;40326;51.220;7.250;2022-08-16T05:44:24;97564.56;;;19.30;100.00
54417;BME280;40326;51.220;7.250;2022-08-16T05:46:54;97551.56;;;20.08;100.00
54417;BME280;40326;51.220;7.250;2022-08-16T05:49:20;97547.06;;;20.26;100.00
54417;BME280;40326;51.220;7.250;2022-08-16T05:51:45;97539.19;;;20.44;100.00
54417;BME280;40326;51.220;7.250;2022-08-16T05:54:13;97533.22;;;20.68;100.00
54417;BME280;40326;51.220;7.250;2022-08-16T05:56:42;97531.75;;;20.82;100.00
54417;BME280;40326;51.220;7.250;2022-08-16T05:59:10;97533.22;;;20.68;100.00
54417;BME280;40326;51.220;7.250;2022-08-16T06:01:35;97530.16;;;20.89;100.00
54417;BME280;40326;51.220;7.250;2022-08-16T06:04:01;97531.44;;;21.01;100.00
54417;BME280;40326;51.220;7.250;2022-08-16T06:06:26;97526.22;;;21.50;100.00
54417;BME280;40326;51.220;7.250;2022-08-16T06:08:51;97528.84;;;21.42;100.00
54417;BME280;40326;51.220;7.250;2022-08-16T06:11:17;97533.06;;;21.18;100.00
54417;BME280;40326;51.220;7.250;2022-08-16T06:13:42;97536.16;;;21.14;100.00
54417;BME280;40326;51.220;7.250;2022-08-16T06:16:09;97542.19;;;20.98;100.00
54417;BME280;40326;51.220;7.250;2022-08-16T06:18:35;97543.47;;;21.59;100.00
54417;BME280;40326;51.220;7.250;2022-08-16T06:21:00;97540.66;;;21.69;100.00
54417;BME280;40326;51.220;7.250;2022-08-16T06:23:26;97539.72;;;21.53;100.00
54417;BME280;40326;51.220;7.250;2022-08-16T06:25:52;97530.41;;;21.67;100.00
54417;BME280;40326;51.220;7.250;2022-08-16T06:28:18;97534.25;;;21.88;100.00
54417;BME280;40326;51.220;7.250;2022-08-16T06:30:44;97543.31;;;21.52;100.00
54417;BME280;40326;51.220;7.250;2022-08-16T06:33:10;97535.44;;;21.77;100.00
54417;BME280;40326;51.220;7.250;2022-08-16T06:35:36;97538.78;;;22.02;100.00
54417;BME280;40326;51.220;7.250;2022-08-16T06:38:02;97537.69;;;21.80;100.00
54417;BME280;40326;51.220;7.250;2022-08-16T06:40:28;97544.44;;;21.58;100.00
54417;BME280;40326;51.220;7.250;2022-08-16T06:42:54;97538.81;;;21.86;100.00
54417;BME280;40326;51.220;7.250;2022-08-16T06:45:20;97543.06;;;21.78;100.00
54417;BME280;40326;51.220;7.250;2022-08-16T06:47:46;97552.16;;;21.82;100.00
54417;BME280;40326;51.220;7.250;2022-08-16T06:50:11;97557.41;;;21.74;100.00
54417;BME280;40326;51.220;7.250;2022-08-16T06:52:36;97560.16;;;21.81;100.00
54417;BME280;40326;51.220;7.250;2022-08-16T06:55:04;97559.66;;;21.94;100.00
54417;BME280;40326;51.220;7.250;2022-08-16T06:57:29;97559.44;;;22.03;100.00
54417;BME280;40326;51.220;7.250;2022-08-16T06:59:55;97560.91;;;22.06;100.00
54417;BME280;40326;51.220;7.250;2022-08-16T07:02:20;97554.69;;;22.15;100.00
54417;BME280;40326;51.220;7.250;2022-08-16T07:04:46;97556.06;;;22.34;100.00
54417;BME280;40326;51.220;7.250;2022-08-16T07:07:11;97566.88;;;22.54;100.00
54417;BME280;40326;51.220;7.250;2022-08-16T07:09:36;97562.72;;;22.36;100.00
54417;BME280;40326;51.220;7.250;2022-08-16T07:12:02;97566.88;;;22.54;100.00
54417;BME280;40326;51.220;7.250;2022-08-16T07:14:28;97571.09;;;22.55;100.00
54417;BME280;40326;51.220;7.250;2022-08-16T07:16:55;97570.47;;;22.53;100.00
54417;BME280;40326;51.220;7.250;2022-08-16T07:19:24;97573.31;;;22.97;100.00
54417;BME280;40326;51.220;7.250;2022-08-16T07:21:49;97566.31;;;23.35;100.00
54417;BME280;40326;51.220;7.250;2022-08-16T07:24:15;97563.13;;;23.10;100.00
54417;BME280;40326;51.220;7.250;2022-08-16T07:26:42;97567.28;;;23.34;100.00
54417;BME280;40326;51.220;7.250;2022-08-16T07:29:08;97568.97;;;23.27;100.00
54417;BME280;40326;51.220;7.250;2022-08-16T07:31:34;97568.09;;;22.97;100.00
54417;BME280;40326;51.220;7.250;2022-08-16T07:33:59;97566.47;;;23.19;100.00
54417;BME280;40326;51.220;7.250;2022-08-16T07:36:25;97564.47;;;23.59;100.00
54417;BME280;40326;51.220;7.250;2022-08-16T07:38:50;97575.63;;;23.52;100.00
54417;BME280;40326;51.220;7.250;2022-08-16T07:41:16;97574.50;;;23.70;100.00
54417;BME280;40326;51.220;7.250;2022-08-16T07:43:41;97572.88;;;23.98;100.00
54417;BME280;40326;51.220;7.250;2022-08-16T07:46:07;97568.38;;;23.92;100.00
54417;BME280;40326;51.220;7.250;2022-08-16T07:48:34;97573.34;;;23.87;100.00
54417;BME280;40326;51.220;7.250;2022-08-16T07:50:59;97569.31;;;23.47;100.00
54417;BME280;40326;51.220;7.250;2022-08-16T07:53:29;97575.88;;;23.43;100.00
54417;BME280;40326;51.220;7.250;2022-08-16T07:55:56;97583.59;;;23.89;100.00
54417;BME280;40326;51.220;7.250;2022-08-16T07:58:22;97588.22;;;23.11;100.00
54417;BME280;40326;51.220;7.250;2022-08-16T08:00:47;97588.44;;;23.62;100.00
54417;BME280;40326;51.220;7.250;2022-08-16T08:03:12;97599.13;;;23.75;100.00
54417;BME280;40326;51.220;7.250;2022-08-16T08:05:38;97594.34;;;24.09;100.00
54417;BME280;40326;51.220;7.250;2022-08-16T08:08:06;97599.13;;;23.52;100.00
54417;BME280;40326;51.220;7.250;2022-08-16T08:10:32;97596.50;;;23.75;100.00
54417;BME280;40326;51.220;7.250;2022-08-16T08:12:57;97596.88;;;24.02;100.00
54417;BME280;40326;51.220;7.250;2022-08-16T08:15:23;97584.91;;;24.58;100.00
54417;BME280;40326;51.220;7.250;2022-08-16T08:17:49;97578.56;;;24.89;100.00
54417;BME280;40326;51.220;7.250;2022-08-16T08:20:16;97575.94;;;24.46;100.00
54417;BME280;40326;51.220;7.250;2022-08-16T08:22:43;97580.44;;;24.95;100.00
54417;BME280;40326;51.220;7.250;2022-08-16T08:25:11;97581.09;;;25.18;100.00
54417;BME280;40326;51.220;7.250;2022-08-16T08:27:37;97584.81;;;25.31;100.00
54417;BME280;40326;51.220;7.250;2022-08-16T08:30:03;97569.75;;;25.67;100.00
54417;BME280;40326;51.220;7.250;2022-08-16T08:32:29;97571.16;;;25.07;100.00
54417;BME280;40326;51.220;7.250;2022-08-16T08:34:56;97571.91;;;25.29;100.00
54417;BME280;40326;51.220;7.250;2022-08-16T08:37:23;97573.66;;;25.71;100.00
54417;BME280;40326;51.220;7.250;2022-08-16T08:39:49;97572.13;;;25.56;100.00
54417;BME280;40326;51.220;7.250;2022-08-16T08:42:15;97574.34;;;25.87;100.00
54417;BME280;40326;51.220;7.250;2022-08-16T08:44:41;97574.94;;;25.82;100.00
54417;BME280;40326;51.220;7.250;2022-08-16T08:47:06;97578.34;;;25.27;100.00
54417;BME280;40326;51.220;7.250;2022-08-16T08:49:33;97581.59;;;25.85;100.00
54417;BME280;40326;51.220;7.250;2022-08-16T08:51:58;97580.88;;;26.04;100.00
54417;BME280;40326;51.220;7.250;2022-08-16T08:54:24;97577.53;;;26.17;100.00
54417;BME280;40326;51.220;7.250;2022-08-16T08:56:51;97585.09;;;26.33;100.00
54417;BME280;40326;51.220;7.250;2022-08-16T08:59:16;97588.34;;;26.42;100.00
54417;BME280;40326;51.220;7.250;2022-08-16T09:01:42;97590.97;;;26.00;100.00
54417;BME280;40326;51.220;7.250;2022-08-16T09:04:08;97588.53;;;25.43;100.00
54417;BME280;40326;51.220;7.250;2022-08-16T09:06:34;97591.22;;;26.12;100.00
54417;BME280;40326;51.220;7.250;2022-08-16T09:09:00;97594.84;;;26.46;100.00
54417;BME280;40326;51.220;7.250;2022-08-16T09:11:26;97600.59;;;26.82;100.00
54417;BME280;40326;51.220;7.250;2022-08-16T09:13:52;97597.25;;;25.50;100.00
54417;BME280;40326;51.220;7.250;2022-08-16T09:16:18;97602.94;;;25.26;100.00
54417;BME280;40326;51.220;7.250;2022-08-16T09:18:45;97598.09;;;25.79;100.00
54417;BME280;40326;51.220;7.250;2022-08-16T09:21:11;97601.75;;;26.19;100.00
54417;BME280;40326;51.220;7.250;2022-08-16T09:23:37;97599.75;;;25.80;100.00
54417;BME280;40326;51.220;7.250;2022-08-16T09:26:05;97596.31;;;25.86;100.00
54417;BME280;40326;51.220;7.250;2022-08-16T09:28:32;97604.25;;;26.34;100.00
54417;BME280;40326;51.220;7.250;2022-08-16T09:30:58;97605.63;;;26.29;100.00
54417;BME280;40326;51.220;7.250;2022-08-16T09:33:23;97607.16;;;27.66;100.00
54417;BME280;40326;51.220;7.250;2022-08-16T09:35:49;97607.75;;;27.75;100.00
54417;BME280;40326;51.220;7.250;2022-08-16T09:38:15;97601.50;;;27.16;100.00
54417;BME280;40326;51.220;7.250;2022-08-16T09:40:42;97595.97;;;26.37;100.00
54417;BME280;40326;51.220;7.250;2022-08-16T09:43:12;97598.41;;;26.93;100.00
54417;BME280;40326;51.220;7.250;2022-08-16T09:45:37;97597.44;;;26.39;100.00
54417;BME280;40326;51.220;7.250;2022-08-16T09:48:07;97595.00;;;26.38;100.00
54417;BME280;40326;51.220;7.250;2022-08-16T09:50:33;97596.56;;;26.80;100.00
54417;BME280;40326;51.220;7.250;2022-08-16T09:53:00;97602.22;;;26.90;100.00
54417;BME280;40326;51.220;7.250;2022-08-16T09:55:26;97594.50;;;26.75;100.00
54417;BME280;40326;51.220;7.250;2022-08-16T09:57:51;97596.91;;;26.64;100.00
54417;BME280;40326;51.220;7.250;2022-08-16T10:00:16;97595.22;;;27.37;100.00
54417;BME280;40326;51.220;7.250;2022-08-16T10:02:42;97596.63;;;27.46;100.00
54417;BME280;40326;51.220;7.250;2022-08-16T10:05:08;97592.06;;;28.33;100.00
54417;BME280;40326;51.220;7.250;2022-08-16T10:07:36;97590.56;;;27.46;100.00
54417;BME280;40326;51.220;7.250;2022-08-16T10:10:02;97595.22;;;27.10;100.00
54417;BME280;40326;51.220;7.250;2022-08-16T10:12:28;97596.97;;;26.90;100.00
54417;BME280;40326;51.220;7.250;2022-08-16T10:15:19;97599.81;;;28.08;100.00
54417;BME280;40326;51.220;7.250;2022-08-16T10:17:47;97593.31;;;28.04;100.00
54417;BME280;40326;51.220;7.250;2022-08-16T10:20:13;97601.56;;;28.34;100.00
54417;BME280;40326;51.220;7.250;2022-08-16T10:22:39;97604.31;;;27.87;100.00
54417;BME280;40326;51.220;7.250;2022-08-16T10:25:05;97600.88;;;27.87;100.00
54417;BME280;40326;51.220;7.250;2022-08-16T10:27:31;97602.28;;;27.63;100.00
54417;BME280;40326;51.220;7.250;2022-08-16T10:29:59;97604.53;;;27.53;100.00
54417;BME280;40326;51.220;7.250;2022-08-16T10:32:25;97600.25;;;27.65;100.00
54417;BME280;40326;51.220;7.250;2022-08-16T10:34:50;97603.44;;;28.13;100.00
54417;BME280;40326;51.220;7.250;2022-08-16T10:37:16;97602.75;;;28.38;100.00
54417;BME280;40326;51.220;7.250;2022-08-16T10:39:41;97603.09;;;27.90;99.80
54417;BME280;40326;51.220;7.250;2022-08-16T10:42:07;97605.13;;;27.28;100.00
54417;BME280;40326;51.220;7.250;2022-08-16T10:44:32;97601.53;;;27.69;100.00
54417;BME280;40326;51.220;7.250;2022-08-16T10:46:58;97602.13;;;26.57;100.00
54417;BME280;40326;51.220;7.250;2022-08-16T10:49:23;97607.56;;;26.14;100.00
54417;BME280;40326;51.220;7.250;2022-08-16T10:51:48;97615.53;;;26.27;100.00
54417;BME280;40326;51.220;7.250;2022-08-16T10:54:14;97614.41;;;27.11;100.00
54417;BME280;40326;51.220;7.250;2022-08-16T10:56:39;97611.50;;;26.79;100.00
54417;BME280;40326;51.220;7.250;2022-08-16T10:59:05;97606.22;;;26.66;100.00
54417;BME280;40326;51.220;7.250;2022-08-16T11:01:30;97613.63;;;27.57;99.85
54417;BME280;40326;51.220;7.250;2022-08-16T11:03:56;97606.31;;;27.85;98.91
54417;BME280;40326;51.220;7.250;2022-08-16T11:06:21;97605.38;;;28.82;93.78
54417;BME280;40326;51.220;7.250;2022-08-16T11:08:47;97613.13;;;28.33;70.65
54417;BME280;40326;51.220;7.250;2022-08-16T11:11:12;97614.75;;;28.78;67.36
54417;BME280;40326;51.220;7.250;2022-08-16T11:13:40;97614.31;;;28.81;67.99
54417;BME280;40326;51.220;7.250;2022-08-16T11:16:07;97616.56;;;28.78;66.71
54417;BME280;40326;51.220;7.250;2022-08-16T11:18:33;97617.97;;;28.29;69.98
54417;BME280;40326;51.220;7.250;2022-08-16T11:20:58;97611.91;;;28.35;75.10
54417;BME280;40326;51.220;7.250;2022-08-16T11:23:26;97615.28;;;27.78;84.15
54417;BME280;40326;51.220;7.250;2022-08-16T11:25:53;97614.78;;;28.14;75.68
54417;BME280;40326;51.220;7.250;2022-08-16T11:28:18;97604.47;;;28.06;81.72
54417;BME280;40326;51.220;7.250;2022-08-16T11:30:44;97611.66;;;28.43;71.08
54417;BME280;40326;51.220;7.250;2022-08-16T11:33:10;97615.44;;;28.61;64.49
54417;BME280;40326;51.220;7.250;2022-08-16T11:35:36;97607.06;;;28.19;64.77
54417;BME280;40326;51.220;7.250;2022-08-16T11:38:05;97618.81;;;28.23;63.77
54417;BME280;40326;51.220;7.250;2022-08-16T11:40:38;97617.06;;;27.84;70.42
54417;BME280;40326;51.220;7.250;2022-08-16T11:43:06;97610.00;;;27.44;81.48
54417;BME280;40326;51.220;7.250;2022-08-16T11:45:34;97600.22;;;26.99;87.60
54417;BME280;40326;51.220;7.250;2022-08-16T11:48:02;97603.66;;;26.93;95.99
54417;BME280;40326;51.220;7.250;2022-08-16T11:50:28;97604.50;;;27.86;73.60
54417;BME280;40326;51.220;7.250;2022-08-16T11:52:57;97606.94;;;27.48;68.52
54417;BME280;40326;51.220;7.250;2022-08-16T11:55:22;97605.88;;;26.96;80.90
54417;BME280;40326;51.220;7.250;2022-08-16T11:57:48;97612.22;;;27.48;75.03
54417;BME280;40326;51.220;7.250;2022-08-16T12:00:14;97611.72;;;28.17;67.69
54417;BME280;40326;51.220;7.250;2022-08-16T12:02:40;97615.91;;;28.44;59.92
54417;BME280;40326;51.220;7.250;2022-08-16T12:05:09;97615.94;;;28.38;60.15
54417;BME280;40326;51.220;7.250;2022-08-16T12:07:34;97619.63;;;28.10;67.18
54417;BME280;40326;51.220;7.250;2022-08-16T12:10:01;97610.16;;;29.05;60.09
54417;BME280;40326;51.220;7.250;2022-08-16T12:12:26;97614.50;;;29.18;65.20
54417;BME280;40326;51.220;7.250;2022-08-16T12:14:52;97616.69;;;28.51;56.05
54417;BME280;40326;51.220;7.250;2022-08-16T12:17:17;97611.31;;;28.71;54.18
54417;BME280;40326;51.220;7.250;2022-08-16T12:19:43;97608.28;;;29.13;58.51
54417;BME280;40326;51.220;7.250;2022-08-16T12:22:09;97604.75;;;29.93;56.04
54417;BME280;40326;51.220;7.250;2022-08-16T12:24:35;97611.25;;;29.23;54.99
54417;BME280;40326;51.220;7.250;2022-08-16T12:27:01;97607.38;;;29.75;53.12
54417;BME280;40326;51.220;7.250;2022-08-16T12:29:27;97604.75;;;29.50;53.65
54417;BME280;40326;51.220;7.250;2022-08-16T12:31:52;97600.66;;;29.98;52.77
54417;BME280;40326;51.220;7.250;2022-08-16T12:34:18;97608.81;;;29.46;52.76
54417;BME280;40326;51.220;7.250;2022-08-16T12:36:44;97612.00;;;29.98;53.28
54417;BME280;40326;51.220;7.250;2022-08-16T12:39:11;97601.34;;;30.11;51.49
54417;BME280;40326;51.220;7.250;2022-08-16T12:41:37;97610.41;;;29.97;52.56
54417;BME280;40326;51.220;7.250;2022-08-16T12:44:04;97605.22;;;30.27;51.62
54417;BME280;40326;51.220;7.250;2022-08-16T12:46:31;97613.53;;;29.37;53.51
54417;BME280;40326;51.220;7.250;2022-08-16T12:48:59;97610.84;;;29.44;51.18
54417;BME280;40326;51.220;7.250;2022-08-16T12:51:33;97613.88;;;29.23;54.94